Weather reports worldwide

Advertisment
Carlsfeld, Germany (10574): temperature & dewpoint: 24.10.2020 11:00:00 - 30.10.2020 11:00:00 (CET)Carlsfeld, Germany (10574): temperature 5cm & temperature -5cm: 24.10.2020 11:00:00 - 30.10.2020 11:00:00 (CET)Carlsfeld, Germany (10574): temperature -20cm & temperature -100cm: 24.10.2020 11:00:00 - 30.10.2020 11:00:00 (CET)Carlsfeld, Germany (10574): wind speed & gusts: 24.10.2020 11:00:00 - 30.10.2020 11:00:00 (CET)Carlsfeld, Germany (10574): wind direction: 24.10.2020 11:00:00 - 30.10.2020 11:00:00 (CET)Carlsfeld, Germany (10574): visibility: 24.10.2020 11:00:00 - 30.10.2020 11:00:00 (CET)Carlsfeld, Germany (10574): sunshine duration: 24.10.2020 11:00:00 - 30.10.2020 11:00:00 (CET)Carlsfeld, Germany (10574): precipitation: 24.10.2020 11:00:00 - 30.10.2020 11:00:00 (CET)
Date & Time tt [°C] td [°C] tt 5cm [°C] tt -5cm [°C] tt -20cm [°C] tt -100cm [°C] ff [km/h] ff [kn] fx [km/h] fx [kn] dd vv [km] sd [min] rr [mm]
30.10.2020 11:00:00 8,4 8,0 8,6 7,5 6,3 8,8 16 8 41 22 W 16 0 0,9
30.10.2020 10:00:00 8,2 7,7 8,2 7,0 6,2 8,8 15 8 44 24 W 10 0 0,1
30.10.2020 09:00:00 7,9 7,6 7,8 6,6 6,0 8,8 16 8 40 21 W 29 0 0,1
30.10.2020 08:00:00 7,5 7,2 7,4 6,2 5,9 8,8 16 9 39 21 W 13 0 0,8
30.10.2020 07:00:00 7,3 6,9 7,0 5,9 5,9 8,9 16 9 42 23 W 34 0 2,5
30.10.2020 06:00:00 6,9 6,4 6,6 5,6 5,8 8,9 17 9 33 18 W 7 0 4,4
30.10.2020 05:00:00 6,2 5,7 5,9 5,2 5,9 8,9 16 9 36 19 W 9 0 3,9
30.10.2020 04:00:00 5,0 4,6 4,9 5,0 5,9 8,9 11 6 26 14 WSW 7 0 2,3
30.10.2020 03:00:00 4,8 4,4 4,7 4,9 5,9 8,9 13 7 28 15 WSW 13 0 1,6
30.10.2020 02:00:00 4,6 4,2 4,5 4,8 5,9 8,9 16 9 33 18 WSW 7 0 0,8
30.10.2020 01:00:00 4,7 4,1 4,4 4,7 5,9 8,9 16 8 30 16 WSW 17 0 0,6
30.10.2020 00:00:00 4,5 4,1 4,4 4,6 6,0 8,9 13 7 24 13 W 11 0 0,4
29.10.2020 23:00:00 4,2 3,7 3,9 4,4 6,0 8,9 10 6 34 18 W 18 0 0,4
29.10.2020 22:00:00 4,2 3,4 3,8 4,2 6,1 9,0 15 8 32 17 W 12 0 0,0
29.10.2020 21:00:00 3,8 3,1 3,1 4,0 6,3 9,0 12 7 28 15 W 19 0 0,0
29.10.2020 20:00:00 3,5 2,6 2,7 4,0 6,4 9,0 14 8 29 16 W 28 0 0,0
29.10.2020 19:00:00 3,2 2,3 2,2 4,3 6,6 9,0 10 5 27 15 W 36 0 0,0
29.10.2020 18:00:00 3,0 2,3 2,3 4,7 6,7 9,0 11 6 23 13 W 36 0 0,0
29.10.2020 17:00:00 3,3 2,2 2,0 5,8 6,7 9,0 9 5 24 13 W 29 13 0,0
29.10.2020 16:00:00 4,6 2,9 3,9 7,1 6,6 9,0 12 6 26 14 W 48 38 0,0
29.10.2020 15:00:00 5,7 3,5 7,4 7,6 6,5 9,0 13 7 32 17 W 50 51 0,0
29.10.2020 14:00:00 4,3 3,2 5,0 6,2 6,4 9,0 14 8 39 21 W 48 14 0,0
29.10.2020 13:00:00 4,4 3,8 4,8 5,9 6,4 9,0 8 4 34 18 NW 31 0 1,7
29.10.2020 12:00:00 3,8 3,4 4,6 5,6 6,4 9,0 8 5 29 16 W 60 0 2,3
29.10.2020 11:00:00 4,8 3,7 5,3 6,0 6,4 9,0 17 9 34 19 W 60 0 0,6
29.10.2020 10:00:00 4,7 3,7 4,7 5,7 6,4 9,0 15 8 37 20 W 21 0 1,9
29.10.2020 09:00:00 5,4 4,6 5,3 5,8 6,4 9,0 15 8 35 19 W 39 0 0,5
29.10.2020 08:00:00 5,5 4,3 5,2 5,7 6,4 9,0 19 11 38 20 W 70 0 0,0
29.10.2020 07:00:00 5,8 4,9 5,4 5,7 6,4 9,0 21 11 46 25 W 63 0 0,7
29.10.2020 06:00:00 6,1 5,3 5,8 5,7 6,4 9,0 21 12 40 22 W 41 0 0,3
29.10.2020 05:00:00 5,9 5,4 5,7 5,6 6,4 9,0 16 9 37 20 WSW 17 0 0,6
29.10.2020 04:00:00 5,8 5,2 5,5 5,5 6,4 9,1 18 10 42 23 WSW 7 0 0,4
29.10.2020 03:00:00 5,7 5,0 5,3 5,2 6,4 9,1 16 8 34 19 WSW 8 0 0,1
29.10.2020 02:00:00 5,2 4,2 4,6 5,1 6,5 9,1 17 9 39 21 WSW 40 0 0,0
29.10.2020 01:00:00 5,4 4,0 4,4 5,3 6,5 9,1 18 10 34 18 WSW 48 0 0,0
29.10.2020 00:00:00 5,4 4,4 4,7 5,4 6,6 9,1 14 7 30 16 WSW 40 0 0,0
28.10.2020 23:00:00 5,4 4,4 4,7 5,6 6,6 9,1 13 7 33 18 WSW 33 0 0,0
28.10.2020 22:00:00 5,7 4,5 5,2 5,8 6,6 9,1 20 11 41 22 WSW 38 0 0,0
28.10.2020 21:00:00 5,9 4,8 5,4 6,0 6,6 9,1 16 8 42 23 W 34 0 0,0
28.10.2020 20:00:00 6,2 5,6 5,9 6,1 6,6 9,1 16 8 33 18 WSW 14 0 0,0
28.10.2020 19:00:00 6,3 5,7 6,0 6,1 6,6 9,1 13 7 37 20 WSW 7 0 0,0
28.10.2020 18:00:00 6,1 5,7 5,9 6,2 6,6 9,1 15 8 37 20 WSW 10 0 0,0
28.10.2020 17:00:00 5,7 5,5 5,8 6,4 6,6 9,1 13 7 32 17 WSW 1,8 0 0,0
28.10.2020 16:00:00 5,5 5,2 5,7 6,6 6,5 9,1 11 6 31 17 WSW 0,3 0 0,2
28.10.2020 15:00:00 5,5 5,2 5,8 6,8 6,3 9,1 12 7 29 16 SW 12 0 0,2
28.10.2020 14:00:00 5,2 5,0 6,3 6,7 6,2 9,1 13 7 28 15 SW 7 0 0,0
28.10.2020 13:00:00 4,9 4,6 5,6 6,6 6,0 9,1 12 6 27 15 WSW 0,5 0 0,0
28.10.2020 12:00:00 4,8 4,4 5,6 6,1 5,9 9,1 12 7 28 15 SW 4,9 0 0,2
28.10.2020 11:00:00 4,7 4,5 5,7 5,6 5,8 9,1 13 7 28 15 WSW 2,0 0 0,0
28.10.2020 10:00:00 4,3 4,1 4,9 5,0 5,8 9,1 15 8 29 16 SW 0,6 0 0,0
28.10.2020 09:00:00 3,5 3,2 3,8 4,4 5,8 9,1 15 8 28 15 SW 0,8 0 0,0
28.10.2020 08:00:00 3,4 3,1 3,5 4,0 5,8 9,2 16 9 30 16 SW 3,0 0 0,0
28.10.2020 07:00:00 3,3 2,8 3,2 3,8 5,9 9,2 14 7 37 20 SW 7 0 0,2
28.10.2020 06:00:00 4,2 0,8 3,7 3,6 6,0 9,2 19 10 56 31 SW 72 0 0,0
28.10.2020 05:00:00 4,4 0,6 3,6 3,5 6,1 9,2 21 12 45 25 SW 64 0 0,0
28.10.2020 04:00:00 3,4 1,4 2,7 3,5 6,2 9,2 17 9 36 20 SW 44 0 0,0
28.10.2020 03:00:00 3,1 1,7 2,1 3,7 6,3 9,2 15 8 42 23 SW 26 0 0,0
28.10.2020 02:00:00 3,2 1,9 2,4 4,2 6,4 9,2 20 11 43 23 SW 20 0 0,0
28.10.2020 01:00:00 3,4 2,4 3,1 4,5 6,5 9,2 20 11 47 25 SW 17 0 0,0
28.10.2020 00:00:00 3,5 2,9 3,5 4,8 6,6 9,2 20 11 45 24 SW 8 0 0,0
27.10.2020 23:00:00 3,6 2,7 3,6 4,9 6,7 9,2 17 9 42 23 SW 11 0 0,0
27.10.2020 22:00:00 3,8 3,0 3,8 4,9 6,7 9,2 19 11 41 22 SW 10 0 0,0
27.10.2020 21:00:00 3,5 2,8 3,5 5,0 6,8 9,2 18 10 36 20 SW 9 0 0,0
27.10.2020 20:00:00 3,3 2,5 3,4 5,1 6,9 9,2 16 9 39 21 SW 10 0 0,0
27.10.2020 19:00:00 3,5 2,4 3,5 5,4 7,0 9,2 18 10 34 19 SW 19 0 0,0
27.10.2020 18:00:00 3,9 2,6 3,9 5,7 7,1 9,2 14 8 36 19 SSW 18 0 0,0
27.10.2020 17:00:00 4,1 2,5 4,1 6,1 7,1 9,2 11 6 27 15 SW 25 0 0,0
27.10.2020 16:00:00 4,3 2,7 4,6 6,6 7,0 9,2 11 6 25 13 SW 25 0 0,0
27.10.2020 15:00:00 4,6 2,7 5,0 6,9 7,0 9,2 12 6 28 15 WSW 30 1 0,0
27.10.2020 14:00:00 4,9 2,7 5,8 7,0 6,9 9,2 15 8 32 17 WSW 40 3 0,0
27.10.2020 13:00:00 4,7 3,0 5,5 7,0 6,8 9,2 16 8 30 16 WSW 30 0 0,0
27.10.2020 12:00:00 4,6 2,9 5,3 6,8 6,7 9,2 15 8 28 15 SW 30 0 0,0
27.10.2020 11:00:00 4,2 2,7 4,6 6,2 6,6 9,2 15 8 35 19 SW 30 0 0,0
27.10.2020 10:00:00 4,0 2,6 4,8 5,8 6,6 9,2 12 6 26 14 WSW 28 0 0,0
27.10.2020 09:00:00 3,8 2,5 4,2 5,3 6,6 9,2 14 8 26 14 WSW 27 0 0,0
27.10.2020 08:00:00 3,6 2,6 3,6 5,0 6,7 9,2 10 5 26 14 WSW 19 0 0,0
27.10.2020 07:00:00 3,8 2,9 3,6 5,0 6,7 9,2 7 4 24 13 SW 19 0 0,0
27.10.2020 06:00:00 3,8 2,9 3,6 5,0 6,8 9,2 9 5 24 13 WSW 20 0 0,0
27.10.2020 05:00:00 3,8 3,0 3,7 5,1 6,8 9,2 10 6 21 11 WSW 22 0 0,0
27.10.2020 04:00:00 3,8 2,9 3,7 5,0 6,9 9,2 10 5 30 16 WSW 25 0 0,0
27.10.2020 03:00:00 3,8 2,7 3,6 5,0 7,0 9,2 13 7 29 16 WSW 32 0 0,0
27.10.2020 02:00:00 3,7 2,4 3,3 5,0 7,1 9,2 13 7 27 14 W 41 0 0,0
27.10.2020 01:00:00 3,6 2,5 3,3 5,1 7,2 9,2 16 9 31 17 W 30 0 0,0
27.10.2020 00:00:00 3,8 2,5 3,4 5,4 7,3 9,2 13 7 30 16 W 40 0 0,0
26.10.2020 23:00:00 4,2 3,1 3,9 5,6 7,4 9,2 16 8 27 15 W 28 0 0,0
26.10.2020 22:00:00 4,5 3,4 4,2 5,8 7,5 9,2 14 8 32 17 WSW 38 0 0,0
26.10.2020 21:00:00 4,5 3,7 4,0 5,9 7,6 9,2 11 6 24 13 W 27 0 0,0
26.10.2020 20:00:00 4,6 3,6 4,3 6,1 7,7 9,2 14 7 27 15 W 41 0 0,0
26.10.2020 19:00:00 4,7 3,8 4,5 6,4 7,8 9,2 12 6 25 13 W 40 0 0,0
26.10.2020 18:00:00 4,9 4,1 4,6 6,8 7,8 9,2 8 5 26 14 WNW 41 0 0,0
26.10.2020 17:00:00 5,4 4,8 5,3 7,1 7,9 9,2 10 5 21 11 W 22 0 0,3
26.10.2020 16:00:00 5,9 5,3 6,0 7,5 7,9 9,2 8 4 19 10 WNW 5 0 0,6
26.10.2020 15:00:00 6,1 5,7 6,1 7,7 7,8 9,2 8 5 23 13 WNW 1,8 0 0,0
26.10.2020 14:00:00 6,5 5,8 6,6 8,1 7,7 9,2 8 5 20 11 W 15 0 0,0
26.10.2020 13:00:00 7,2 5,6 7,5 8,4 7,5 9,2 10 5 20 11 WSW 20 0 0,0
26.10.2020 12:00:00 7,0 6,1 7,6 8,2 7,4 9,2 10 5 20 11 S 25 0 0,0
26.10.2020 11:00:00 6,4 6,0 6,8 7,3 7,4 9,2 10 6 25 13 SSE 6 0 0,0
26.10.2020 10:00:00 6,0 5,7 6,4 6,9 7,3 9,2 11 6 26 14 SSW 1,0 0 0,0
26.10.2020 09:00:00 5,7 5,1 6,1 6,2 7,4 9,2 14 7 30 16 S 15 0 0,0
26.10.2020 08:00:00 5,6 4,9 5,0 6,0 7,4 9,2 9 5 16 8 SSE 26 0 0,0
26.10.2020 07:00:00 5,8 5,2 5,5 6,0 7,5 9,2 11 6 27 14 S 24 0 0,0
26.10.2020 06:00:00 5,5 4,6 5,1 6,0 7,5 9,2 14 8 26 14 S 19 0 0,0
26.10.2020 05:00:00 7,3 4,5 6,6 6,0 7,6 9,2 11 6 24 13 S 64 0 0,0
26.10.2020 04:00:00 7,6 4,5 6,4 6,0 7,7 9,2 11 6 24 13 S 63 0 0,0
26.10.2020 03:00:00 7,8 4,0 6,9 6,1 7,7 9,2 11 6 21 11 S 69 0 0,0
26.10.2020 02:00:00 7,2 4,7 6,2 5,9 7,9 9,2 8 4 17 9 S 74 0 0,0
26.10.2020 01:00:00 6,9 4,4 5,3 5,9 8,0 9,2 9 5 19 11 SW 60 0 0,0
26.10.2020 00:00:00 7,3 4,4 5,9 6,0 8,2 9,2 10 6 19 10 SW 60 0 0,0
25.10.2020 23:00:00 7,2 3,9 5,2 6,3 8,3 9,2 10 5 23 12 SW 73 0 0,0
25.10.2020 22:00:00 7,5 4,3 5,9 6,7 8,5 9,2 11 6 20 11 SW 60 0 0,0
25.10.2020 21:00:00 7,6 5,9 6,5 7,1 8,6 9,2 9 5 19 11 SSW 49 0 0,0
25.10.2020 20:00:00 7,7 5,9 6,3 7,5 8,7 9,2 9 5 18 10 SW 52 0 0,0
25.10.2020 19:00:00 8,7 5,9 7,3 8,0 8,8 9,1 9 5 32 17 SSW 60 0 0,0
25.10.2020 18:00:00 9,2 6,4 8,1 8,4 8,9 9,1 14 8 34 18 S 59 0 0,0
25.10.2020 17:00:00 9,5 6,5 8,0 9,2 8,9 9,1 14 8 32 17 S 69 4 0,0
25.10.2020 16:00:00 10,6 6,6 9,2 10,3 8,7 9,1 17 9 39 21 SSW 75 56 0,0
25.10.2020 15:00:00 11,2 6,2 11,5 10,9 8,5 9,1 14 8 35 19 SSW 62 60 0,0
25.10.2020 14:00:00 10,9 6,2 12,1 10,6 8,3 9,1 15 8 35 19 S 75 46 0,0
25.10.2020 13:00:00 10,6 5,4 11,2 11,2 7,9 9,1 18 10 35 19 SSW 75 60 0,0
25.10.2020 12:00:00 10,6 5,7 12,0 10,8 7,6 9,1 16 9 35 19 SSW 61 60 0,0
25.10.2020 11:00:00 9,4 6,0 10,6 9,3 7,3 9,1 12 7 30 16 S 53 60 0,0
25.10.2020 10:00:00 8,1 6,0 9,5 7,5 7,2 9,1 11 6 32 17 SW 25 60 0,0
25.10.2020 09:00:00 7,1 5,8 7,4 5,9 7,2 9,1 14 8 31 17 SSW 18 29 0,0
25.10.2020 08:00:00 6,2 5,5 5,6 5,6 7,3 9,1 14 8 35 19 SSW 14 0 0,0
25.10.2020 07:00:00 6,3 5,9 5,7 5,3 7,4 9,1 12 7 30 16 SSW 7 0 0,0
25.10.2020 06:00:00 6,2 5,8 5,5 4,8 7,6 9,1 13 7 27 15 SW 9 0 0,0
25.10.2020 05:00:00 5,7 5,1 3,8 4,8 7,8 9,1 7 4 17 9 SSW 19 0 0,0
25.10.2020 04:00:00 5,6 4,9 4,0 5,1 7,9 9,0 6 4 20 11 SW 6 0 0,0
25.10.2020 03:00:00 5,7 5,1 2,8 5,6 8,1 9,0 8 4 19 10 SW 0,6 0 0,0
25.10.2020 02:00:00 6,7 6,1 5,2 6,0 8,2 9,0 13 7 31 17 SW 11 0 0,0
25.10.2020 01:00:00 - - - - - - - - - - - - - -
25.10.2020 00:00:00 7,1 6,3 5,7 6,3 8,5 9,0 12 6 28 15 SW 20 0 0,0
24.10.2020 23:00:00 7,1 6,3 5,7 6,5 8,7 9,0 13 7 30 16 SW 24 0 0,0
24.10.2020 22:00:00 7,2 6,4 5,7 6,7 8,9 9,0 11 6 26 14 WSW 33 0 0,0
24.10.2020 21:00:00 7,4 6,4 6,0 7,0 9,1 9,0 12 6 28 15 SW 35 0 0,0
24.10.2020 20:00:00 7,4 6,5 6,0 7,3 9,3 9,0 10 5 21 11 WSW 33 0 0,0
24.10.2020 19:00:00 7,4 6,4 5,7 7,8 9,5 9,0 11 6 21 11 W 34 0 0,0
24.10.2020 18:00:00 7,6 6,3 5,9 8,6 9,7 9,0 11 6 24 13 WSW 41 0 0,0
24.10.2020 17:00:00 8,4 6,7 6,8 9,7 9,7 9,0 10 5 22 12 WSW 51 2 0,0
24.10.2020 16:00:00 9,4 7,2 8,8 10,7 9,7 9,0 9 5 23 12 W 65 5 0,0
24.10.2020 15:00:00 9,7 7,3 9,6 11,6 9,5 9,0 15 8 30 16 WSW 61 33 0,0
24.10.2020 14:00:00 10,4 7,5 12,8 11,4 9,4 8,9 16 9 27 14 W 46 22 0,0
24.10.2020 13:00:00 9,3 6,9 9,2 11,9 9,2 8,9 12 6 34 18 WSW 41 22 0,0
24.10.2020 12:00:00 9,8 7,5 10,9 11,8 8,9 8,9 11 6 32 17 W 55 49 0,0
24.10.2020 11:00:00 9,8 7,4 12,1 10,5 8,8 8,9 16 8 31 17 WSW 35 34 0,0

tt = temperature
td = dewpoint
tt 5cm = temperature 5cm
tt -5cm = temperature -5cm
tt -20cm = temperature -20cm
tt -100cm = temperature -100cm
ff = wind speed
fx = gusts
dd = wind direction
vv = visibility
sd = sunshine duration
rr = precipitation

Next stations